Saturday, December 15, 2018, 9:57 AM EST
Back to Local

KLBE, Latrobe / Westmorland

Location: Latrobe, PA, United States Lat: 40.283
Local Time: 9:57 AM EST (14:57 GMT) Lon: -79.4
Time Zone: US/Eastern Elev: 1184 ft

Show me the last for .
Show Decoded

2018-12-15 08:53 METAR KLBE 151353Z 03009KT 8SM FEW003 OVC070 08/08 A3006 =
2018-12-15 07:53 METAR KLBE 151253Z 01005KT 5SM -DZ FEW050 OVC070 08/08 A3004 =
2018-12-15 06:53 METAR KLBE 151153Z 01005KT 3/4SM -RA SCT012 BKN034 07/07 A3004 =
2018-12-15 05:55 METAR KLBE 151055Z AUTO 36005KT 2SM -RA BKN002 BKN023 OVC055 07/07 A3007 RMK AO2
                 =
2018-12-15 05:35 METAR KLBE 151035Z AUTO 02005KT 2SM -RA FEW023 BKN046 OVC055 07/08 A3007 RMK AO2
                 =
2018-12-15 05:15 METAR KLBE 151015Z AUTO 00000KT 3SM -RA FEW036 BKN047 OVC060 07/07 A3007 RMK AO2
                 =
2018-12-15 04:55 METAR KLBE 150955Z AUTO 00000KT 2SM -RA SCT036 BKN046 OVC060 07/07 A3006 RMK AO2
                 =
2018-12-15 04:35 METAR KLBE 150935Z AUTO 00000KT 2 1/2SM -RA FEW003 SCT035 BKN043 07/07 A3007 RMK
                 AO2 =
2018-12-15 04:15 METAR KLBE 150915Z AUTO 35004KT 3SM -RA FEW001 SCT013 BKN040 07/07 A3007 RMK AO2
                 =
2018-12-15 03:55 METAR KLBE 150855Z AUTO 35004KT 4SM BR SCT002 BKN038 BKN047 07/07 A3008 RMK AO2
                 =
2018-12-15 03:35 METAR KLBE 150835Z AUTO 36006KT 4SM BR FEW043 SCT048 SCT055 07/07 A3009 RMK AO2
                 =
2018-12-15 03:15 METAR KLBE 150815Z AUTO 00000KT 3SM BR FEW038 BKN047 BKN060 07/07 A3009 RMK AO2
                 =
2018-12-15 02:55 METAR KLBE 150755Z AUTO 35005KT 7SM FEW046 BKN060 BKN070 07/07 A3009 RMK AO2 =
2018-12-15 02:35 METAR KLBE 150735Z AUTO VRB04KT 4SM BR BKN070 07/07 A3008 RMK AO2 =
2018-12-15 02:15 METAR KLBE 150715Z AUTO 34004KT 3SM BR SCT002 BKN075 07/07 A3007 RMK AO2 =
2018-12-15 01:55 METAR KLBE 150655Z AUTO 01004KT 3SM BR BKN002 OVC070 07/07 A3009 RMK AO2 =
2018-12-15 01:35 METAR KLBE 150635Z AUTO 02004KT 2 1/2SM BR BKN002 OVC045 07/07 A3010 RMK AO2 =
2018-12-15 01:15 METAR KLBE 150615Z AUTO 02005KT 3SM -DZ BKN002 BKN036 OVC050 07/07 A3011 RMK AO2
                 =
2018-12-15 00:55 METAR KLBE 150555Z AUTO 01005KT 2SM -DZ SCT002 BKN037 OVC065 07/07 A3012 RMK AO2
                 =
2018-12-15 00:35 METAR KLBE 150535Z AUTO 35005KT 3SM -RA FEW002 BKN047 OVC090 07/07 A3012 RMK AO2
                 =
2018-12-15 00:15 METAR KLBE 150515Z AUTO 36005KT 3SM -RA FEW025 SCT036 BKN046 07/07 A3013 RMK AO2
                 =
2018-12-14 23:55 METAR KLBE 150455Z AUTO 35003KT 4SM RA FEW025 BKN045 OVC070 07/07 A3014 RMK AO2
                 =
2018-12-14 23:35 METAR KLBE 150435Z AUTO 01003KT 5SM -RA FEW036 BKN047 OVC080 07/07 A3014 RMK AO2
                 =
2018-12-14 23:15 METAR KLBE 150415Z AUTO 00000KT 5SM -RA BKN047 BKN060 OVC070 07/07 A3014 RMK AO2
                 =
2018-12-14 22:55 METAR KLBE 150355Z AUTO 00000KT 5SM -RA BKN047 BKN070 OVC085 07/07 A3014 RMK AO2
                 =
2018-12-14 22:35 METAR KLBE 150335Z AUTO 35004KT 5SM -RA BKN039 BKN048 OVC070 07/07 A3014 RMK AO2
                 =
2018-12-14 22:15 METAR KLBE 150315Z AUTO 00000KT 5SM -RA FEW035 BKN040 OVC046 07/07 A3015 RMK AO2
                 =
2018-12-14 21:50 METAR KLBE 150250Z 00000KT 6SM -RA BKN044 07/07 A3017 =
2018-12-14 20:50 METAR KLBE 150150Z 00000KT 4SM -RA BKN042 08/08 A3018 =
2018-12-14 19:50 METAR KLBE 150050Z 00000KT 5SM -RA BKN040 08/08 A3019 =
2018-12-14 18:50 METAR KLBE 142350Z 15005KT 5SM -RA SCT030 BKN040 09/09 A3020 =
2018-12-14 17:50 METAR KLBE 142250Z 17005KT 8SM BKN045 10/08 A3021 =
2018-12-14 16:50 METAR KLBE 142150Z 17006KT 6SM -RA BKN030 10/09 A3020 =
2018-12-14 15:55 METAR KLBE 142055Z 21008KT 6SM -RA BKN029 12/08 A3021 =
2018-12-14 13:45 METAR KLBE 141845Z 22005KT 10SM OVC040 12/05 A3019 =
2018-12-14 12:55 METAR KLBE 141755Z 00000KT 10SM BKN045 OVC070 12/04 A3020 =
2018-12-14 11:45 METAR KLBE 141645Z VRB04KT 10SM SCT050 12/03 A3022 =
2018-12-14 10:50 METAR KLBE 141550Z 00000KT 10SM BKN070 10/02 A3024 =

Support USWX by starting your Amazon purchase here.